Minehead, United Kingdom
Current Conditions -  °F | °C
As of 3:50 AM on Tuesday 21 Oct 2014 (Local Time) from EGDX Reporting Station
Light Rain Light Rain  
Wind Chill: 57°   Ceiling: 700
Heat Index: 57°   Visibility: 6mi
Dew Point: 55°   Wind: 28mph
Humidity: 94%   Direction: 240°WSW
Pressure: 29.62"   Gusts: 39mph
Location:  51.21°N, 3.48°W
Report Text: EGDX 210250Z AUTO 24024G34KT 9999 -RA BKN007/// BKN014/// 14/13 Q1003
Loading
Personal Weather Stations






























Interactive Weather Map
Tropical Storm Tracking
New forecast layout! Learn more

10-Day Weather Forecast

Advertisements
Track Severe Weather on mobile